Glenola, North Carolina
Current Conditions -  °F | °C
As of 2:54 PM on Sunday 25 Jan 2015 (Local Time) from KINT Reporting Station
Clear Clear  
Wind Chill: 53°   Ceiling: Unl
Heat Index: 53°   Visibility: 10mi
Dew Point: 28°   Wind: 10mph
Humidity: 38%   Direction: 170°S
Pressure: 29.8"   Gusts: 18mph
Location:  35.9808°N, 80.1272°W
Report Text: KINT 251954Z 17009G16KT 10SM CLR 12/M02 A2980 RMK AO2 SLP091 T01171022
Loading
Personal Weather Stations






























Interactive Weather Map New forecast layout! Learn more

10-Day Weather Forecast

Advertisements
Track Severe Weather on mobile